sensor_id;sensor_type;location;lat;lon;timestamp;pressure;altitude;pressure_sealevel;temperature;humidity
4590;BME280;2307;48.448;9.216;2022-09-30T00:02:08;94509.25;;;9.00;100.00
4590;BME280;2307;48.448;9.216;2022-09-30T00:04:36;94520.63;;;9.05;100.00
4590;BME280;2307;48.448;9.216;2022-09-30T00:07:03;94522.44;;;9.00;100.00
4590;BME280;2307;48.448;9.216;2022-09-30T00:09:29;94520.88;;;9.04;100.00
4590;BME280;2307;48.448;9.216;2022-09-30T00:11:55;94520.69;;;9.11;100.00
4590;BME280;2307;48.448;9.216;2022-09-30T00:14:22;94527.50;;;9.06;100.00
4590;BME280;2307;48.448;9.216;2022-09-30T00:16:49;94530.25;;;8.95;100.00
4590;BME280;2307;48.448;9.216;2022-09-30T00:19:17;94525.56;;;8.97;100.00
4590;BME280;2307;48.448;9.216;2022-09-30T00:21:43;94525.84;;;9.00;100.00
4590;BME280;2307;48.448;9.216;2022-09-30T00:24:09;94522.72;;;8.82;100.00
4590;BME280;2307;48.448;9.216;2022-09-30T00:26:36;94521.31;;;8.74;100.00
4590;BME280;2307;48.448;9.216;2022-09-30T00:29:02;94529.72;;;8.93;100.00
4590;BME280;2307;48.448;9.216;2022-09-30T00:31:30;94530.00;;;8.96;100.00
4590;BME280;2307;48.448;9.216;2022-09-30T00:33:57;94531.31;;;8.94;100.00
4590;BME280;2307;48.448;9.216;2022-09-30T00:36:34;94531.91;;;9.01;100.00
4590;BME280;2307;48.448;9.216;2022-09-30T00:39:01;94531.72;;;9.07;100.00
4590;BME280;2307;48.448;9.216;2022-09-30T00:41:28;94542.56;;;9.11;100.00
4590;BME280;2307;48.448;9.216;2022-09-30T00:43:55;94538.22;;;9.22;100.00
4590;BME280;2307;48.448;9.216;2022-09-30T00:46:23;94543.16;;;9.18;100.00
4590;BME280;2307;48.448;9.216;2022-09-30T00:48:52;94546.22;;;9.10;100.00
4590;BME280;2307;48.448;9.216;2022-09-30T00:51:20;94549.34;;;9.07;100.00
4590;BME280;2307;48.448;9.216;2022-09-30T00:53:51;94547.22;;;9.04;100.00
4590;BME280;2307;48.448;9.216;2022-09-30T00:56:20;94538.69;;;9.19;100.00
4590;BME280;2307;48.448;9.216;2022-09-30T00:58:49;94540.09;;;9.26;100.00
4590;BME280;2307;48.448;9.216;2022-09-30T01:01:17;94533.44;;;9.19;100.00
4590;BME280;2307;48.448;9.216;2022-09-30T01:03:44;94532.63;;;9.18;100.00
4590;BME280;2307;48.448;9.216;2022-09-30T01:06:14;94531.34;;;9.21;100.00
4590;BME280;2307;48.448;9.216;2022-09-30T01:08:40;94539.50;;;9.19;100.00
4590;BME280;2307;48.448;9.216;2022-09-30T01:11:08;94532.59;;;9.13;100.00
4590;BME280;2307;48.448;9.216;2022-09-30T01:13:35;94540.50;;;9.13;100.00
4590;BME280;2307;48.448;9.216;2022-09-30T01:16:05;94537.28;;;9.11;100.00
4590;BME280;2307;48.448;9.216;2022-09-30T01:18:37;94539.06;;;9.05;100.00
4590;BME280;2307;48.448;9.216;2022-09-30T01:24:07;94537.28;;;9.11;100.00
4590;BME280;2307;48.448;9.216;2022-09-30T01:26:51;94542.44;;;9.01;100.00
4590;BME280;2307;48.448;9.216;2022-09-30T01:29:25;94537.16;;;9.01;100.00
4590;BME280;2307;48.448;9.216;2022-09-30T01:32:04;94546.94;;;9.00;100.00
4590;BME280;2307;48.448;9.216;2022-09-30T01:34:33;94550.41;;;9.06;100.00
4590;BME280;2307;48.448;9.216;2022-09-30T01:37:08;94556.03;;;8.93;100.00
4590;BME280;2307;48.448;9.216;2022-09-30T01:39:41;94548.19;;;8.98;100.00
4590;BME280;2307;48.448;9.216;2022-09-30T01:42:12;94545.03;;;8.96;100.00
4590;BME280;2307;48.448;9.216;2022-09-30T01:44:45;94548.28;;;8.81;100.00
4590;BME280;2307;48.448;9.216;2022-09-30T01:47:16;94554.78;;;8.79;100.00
4590;BME280;2307;48.448;9.216;2022-09-30T01:49:49;94548.09;;;8.88;100.00
4590;BME280;2307;48.448;9.216;2022-09-30T01:52:19;94560.28;;;8.94;100.00
4590;BME280;2307;48.448;9.216;2022-09-30T01:54:48;94563.44;;;8.74;100.00
4590;BME280;2307;48.448;9.216;2022-09-30T01:57:19;94557.53;;;8.67;100.00
4590;BME280;2307;48.448;9.216;2022-09-30T01:59:49;94566.38;;;8.78;100.00
4590;BME280;2307;48.448;9.216;2022-09-30T02:02:19;94566.56;;;8.93;100.00
4590;BME280;2307;48.448;9.216;2022-09-30T02:04:47;94562.72;;;9.00;100.00
4590;BME280;2307;48.448;9.216;2022-09-30T02:07:17;94581.25;;;8.89;100.00
4590;BME280;2307;48.448;9.216;2022-09-30T02:09:47;94574.47;;;8.71;100.00
4590;BME280;2307;48.448;9.216;2022-09-30T02:12:17;94559.56;;;8.82;100.00
4590;BME280;2307;48.448;9.216;2022-09-30T02:14:45;94563.94;;;8.93;100.00
4590;BME280;2307;48.448;9.216;2022-09-30T02:17:13;94557.94;;;8.97;100.00
4590;BME280;2307;48.448;9.216;2022-09-30T02:19:45;94558.50;;;8.99;100.00
4590;BME280;2307;48.448;9.216;2022-09-30T02:22:13;94559.34;;;9.05;100.00
4590;BME280;2307;48.448;9.216;2022-09-30T02:24:41;94566.63;;;8.98;100.00
4590;BME280;2307;48.448;9.216;2022-09-30T02:27:11;94564.72;;;8.72;100.00
4590;BME280;2307;48.448;9.216;2022-09-30T02:29:41;94559.41;;;8.88;100.00
4590;BME280;2307;48.448;9.216;2022-09-30T02:32:12;94556.47;;;9.06;100.00
4590;BME280;2307;48.448;9.216;2022-09-30T02:34:40;94557.75;;;9.04;100.00
4590;BME280;2307;48.448;9.216;2022-09-30T02:37:11;94559.16;;;9.12;100.00
4590;BME280;2307;48.448;9.216;2022-09-30T02:39:41;94556.97;;;9.03;100.00
4590;BME280;2307;48.448;9.216;2022-09-30T02:42:10;94557.16;;;8.97;100.00
4590;BME280;2307;48.448;9.216;2022-09-30T02:44:37;94560.47;;;9.09;100.00
4590;BME280;2307;48.448;9.216;2022-09-30T02:47:08;94556.28;;;9.13;100.00
4590;BME280;2307;48.448;9.216;2022-09-30T02:49:38;94560.31;;;8.99;100.00
4590;BME280;2307;48.448;9.216;2022-09-30T02:52:07;94563.00;;;9.04;100.00
4590;BME280;2307;48.448;9.216;2022-09-30T02:54:39;94553.94;;;8.95;100.00
4590;BME280;2307;48.448;9.216;2022-09-30T02:57:13;94554.31;;;8.82;100.00
4590;BME280;2307;48.448;9.216;2022-09-30T02:59:43;94555.41;;;8.86;100.00
4590;BME280;2307;48.448;9.216;2022-09-30T03:02:10;94561.97;;;8.83;100.00
4590;BME280;2307;48.448;9.216;2022-09-30T03:04:36;94566.88;;;8.75;100.00
4590;BME280;2307;48.448;9.216;2022-09-30T03:07:05;94570.13;;;8.43;100.00
4590;BME280;2307;48.448;9.216;2022-09-30T03:09:33;94581.59;;;8.37;100.00
4590;BME280;2307;48.448;9.216;2022-09-30T03:12:07;94588.94;;;8.35;100.00
4590;BME280;2307;48.448;9.216;2022-09-30T03:14:40;94595.63;;;8.43;100.00
4590;BME280;2307;48.448;9.216;2022-09-30T03:17:19;94597.91;;;8.23;100.00
4590;BME280;2307;48.448;9.216;2022-09-30T03:19:59;94610.63;;;7.81;100.00
4590;BME280;2307;48.448;9.216;2022-09-30T03:22:35;94612.41;;;7.92;100.00
4590;BME280;2307;48.448;9.216;2022-09-30T03:25:10;94609.94;;;8.02;100.00
4590;BME280;2307;48.448;9.216;2022-09-30T03:27:40;94610.03;;;8.07;100.00
4590;BME280;2307;48.448;9.216;2022-09-30T03:30:12;94612.47;;;7.97;100.00
4590;BME280;2307;48.448;9.216;2022-09-30T03:32:48;94618.47;;;8.09;100.00
4590;BME280;2307;48.448;9.216;2022-09-30T03:35:20;94615.84;;;8.26;100.00
4590;BME280;2307;48.448;9.216;2022-09-30T03:37:52;94621.19;;;8.14;100.00
4590;BME280;2307;48.448;9.216;2022-09-30T03:40:25;94626.78;;;8.34;100.00
4590;BME280;2307;48.448;9.216;2022-09-30T03:42:55;94619.31;;;8.43;100.00
4590;BME280;2307;48.448;9.216;2022-09-30T03:45:24;94629.38;;;8.46;100.00
4590;BME280;2307;48.448;9.216;2022-09-30T03:47:54;94628.72;;;8.39;100.00
4590;BME280;2307;48.448;9.216;2022-09-30T03:50:22;94629.38;;;8.46;100.00
4590;BME280;2307;48.448;9.216;2022-09-30T03:52:50;94627.28;;;8.31;100.00
4590;BME280;2307;48.448;9.216;2022-09-30T03:55:17;94626.78;;;8.34;100.00
4590;BME280;2307;48.448;9.216;2022-09-30T03:57:46;94630.03;;;8.25;100.00
4590;BME280;2307;48.448;9.216;2022-09-30T04:00:15;94632.66;;;8.08;100.00
4590;BME280;2307;48.448;9.216;2022-09-30T04:02:41;94634.66;;;8.01;100.00
4590;BME280;2307;48.448;9.216;2022-09-30T04:05:07;94624.38;;;8.16;100.00
4590;BME280;2307;48.448;9.216;2022-09-30T04:07:34;94633.38;;;8.20;100.00
4590;BME280;2307;48.448;9.216;2022-09-30T04:10:00;94629.63;;;8.16;100.00
4590;BME280;2307;48.448;9.216;2022-09-30T04:12:27;94636.31;;;8.07;100.00
4590;BME280;2307;48.448;9.216;2022-09-30T04:14:53;94639.66;;;8.02;100.00
4590;BME280;2307;48.448;9.216;2022-09-30T04:17:21;94638.69;;;7.92;100.00
4590;BME280;2307;48.448;9.216;2022-09-30T04:19:47;94640.66;;;7.85;100.00
4590;BME280;2307;48.448;9.216;2022-09-30T04:22:14;94649.38;;;7.74;100.00
4590;BME280;2307;48.448;9.216;2022-09-30T04:24:40;94655.41;;;7.86;100.00
4590;BME280;2307;48.448;9.216;2022-09-30T04:27:07;94659.53;;;7.82;100.00
4590;BME280;2307;48.448;9.216;2022-09-30T04:29:34;94660.00;;;7.79;100.00
4590;BME280;2307;48.448;9.216;2022-09-30T04:32:00;94667.78;;;7.74;100.00
4590;BME280;2307;48.448;9.216;2022-09-30T04:34:28;94666.94;;;7.57;100.00
4590;BME280;2307;48.448;9.216;2022-09-30T04:36:55;94669.19;;;7.65;100.00
4590;BME280;2307;48.448;9.216;2022-09-30T04:39:21;94667.69;;;7.69;100.00
4590;BME280;2307;48.448;9.216;2022-09-30T04:41:47;94673.50;;;7.71;100.00
4590;BME280;2307;48.448;9.216;2022-09-30T04:44:14;94681.78;;;7.63;100.00
4590;BME280;2307;48.448;9.216;2022-09-30T04:46:40;94678.41;;;7.51;100.00
4590;BME280;2307;48.448;9.216;2022-09-30T04:49:07;94680.91;;;7.45;100.00
4590;BME280;2307;48.448;9.216;2022-09-30T04:51:35;94678.75;;;7.42;100.00
4590;BME280;2307;48.448;9.216;2022-09-30T04:54:02;94676.31;;;7.53;100.00
4590;BME280;2307;48.448;9.216;2022-09-30T04:56:28;94679.97;;;7.52;100.00
4590;BME280;2307;48.448;9.216;2022-09-30T04:58:55;94677.41;;;7.68;100.00
4590;BME280;2307;48.448;9.216;2022-09-30T05:01:21;94680.38;;;7.72;100.00
4590;BME280;2307;48.448;9.216;2022-09-30T05:03:48;94678.75;;;7.71;100.00
4590;BME280;2307;48.448;9.216;2022-09-30T05:06:15;94681.97;;;7.73;100.00
4590;BME280;2307;48.448;9.216;2022-09-30T05:08:43;94678.63;;;7.77;100.00
4590;BME280;2307;48.448;9.216;2022-09-30T05:11:09;94691.44;;;7.74;100.00
4590;BME280;2307;48.448;9.216;2022-09-30T05:13:39;94688.38;;;7.77;100.00
4590;BME280;2307;48.448;9.216;2022-09-30T05:16:06;94680.38;;;7.72;100.00
4590;BME280;2307;48.448;9.216;2022-09-30T05:18:33;94690.81;;;7.67;100.00
4590;BME280;2307;48.448;9.216;2022-09-30T05:20:59;94689.09;;;7.61;100.00
4590;BME280;2307;48.448;9.216;2022-09-30T05:23:27;94686.00;;;7.64;100.00
4590;BME280;2307;48.448;9.216;2022-09-30T05:25:56;94692.84;;;7.65;100.00
4590;BME280;2307;48.448;9.216;2022-09-30T05:28:22;94694.53;;;7.71;100.00
4590;BME280;2307;48.448;9.216;2022-09-30T05:30:53;94694.41;;;7.77;100.00
4590;BME280;2307;48.448;9.216;2022-09-30T05:33:22;94702.88;;;7.68;100.00
4590;BME280;2307;48.448;9.216;2022-09-30T05:35:48;94710.59;;;7.58;100.00
4590;BME280;2307;48.448;9.216;2022-09-30T05:38:14;94711.50;;;7.52;100.00
4590;BME280;2307;48.448;9.216;2022-09-30T05:40:41;94703.19;;;7.55;100.00
4590;BME280;2307;48.448;9.216;2022-09-30T05:43:09;94707.16;;;7.45;100.00
4590;BME280;2307;48.448;9.216;2022-09-30T05:45:35;94700.31;;;7.56;100.00
4590;BME280;2307;48.448;9.216;2022-09-30T05:48:02;94698.69;;;7.55;100.00
4590;BME280;2307;48.448;9.216;2022-09-30T05:50:29;94694.50;;;7.54;100.00
4590;BME280;2307;48.448;9.216;2022-09-30T05:52:55;94698.91;;;7.65;100.00
4590;BME280;2307;48.448;9.216;2022-09-30T05:55:22;94705.50;;;7.68;100.00
4590;BME280;2307;48.448;9.216;2022-09-30T05:57:49;94711.38;;;7.58;100.00
4590;BME280;2307;48.448;9.216;2022-09-30T06:00:17;94711.50;;;7.52;100.00
4590;BME280;2307;48.448;9.216;2022-09-30T06:02:44;94721.44;;;7.49;100.00
4590;BME280;2307;48.448;9.216;2022-09-30T06:05:11;94727.50;;;7.50;100.00
4590;BME280;2307;48.448;9.216;2022-09-30T06:07:37;94727.25;;;7.52;100.00
4590;BME280;2307;48.448;9.216;2022-09-30T06:10:05;94729.34;;;7.49;100.00
4590;BME280;2307;48.448;9.216;2022-09-30T06:12:32;94729.13;;;7.51;100.00
4590;BME280;2307;48.448;9.216;2022-09-30T06:15:00;94729.56;;;7.36;100.00
4590;BME280;2307;48.448;9.216;2022-09-30T06:17:28;94743.41;;;7.43;100.00
4590;BME280;2307;48.448;9.216;2022-09-30T06:19:54;94743.84;;;7.40;100.00
4590;BME280;2307;48.448;9.216;2022-09-30T06:22:20;94754.91;;;7.42;100.00
4590;BME280;2307;48.448;9.216;2022-09-30T06:24:47;94756.50;;;7.55;100.00
4590;BME280;2307;48.448;9.216;2022-09-30T06:27:13;94759.13;;;7.67;100.00
4590;BME280;2307;48.448;9.216;2022-09-30T06:29:39;94763.31;;;7.79;100.00
4590;BME280;2307;48.448;9.216;2022-09-30T06:32:06;94758.28;;;7.78;100.00
4590;BME280;2307;48.448;9.216;2022-09-30T06:34:34;94758.50;;;7.88;100.00
4590;BME280;2307;48.448;9.216;2022-09-30T06:37:00;94759.63;;;7.92;100.00
4590;BME280;2307;48.448;9.216;2022-09-30T06:39:26;94765.56;;;7.99;100.00
4590;BME280;2307;48.448;9.216;2022-09-30T06:41:53;94770.16;;;7.92;100.00
4590;BME280;2307;48.448;9.216;2022-09-30T06:44:20;94770.47;;;7.95;100.00
4590;BME280;2307;48.448;9.216;2022-09-30T06:46:46;94767.81;;;8.07;100.00
4590;BME280;2307;48.448;9.216;2022-09-30T06:49:13;94784.59;;;8.18;100.00
4590;BME280;2307;48.448;9.216;2022-09-30T06:51:40;94780.44;;;8.22;100.00
4590;BME280;2307;48.448;9.216;2022-09-30T06:54:07;94791.97;;;8.32;100.00
4590;BME280;2307;48.448;9.216;2022-09-30T06:56:34;94795.50;;;8.38;100.00
4590;BME280;2307;48.448;9.216;2022-09-30T06:59:00;94795.28;;;8.39;100.00
4590;BME280;2307;48.448;9.216;2022-09-30T07:01:27;94794.00;;;8.42;100.00
4590;BME280;2307;48.448;9.216;2022-09-30T07:03:54;94791.22;;;8.48;100.00
4590;BME280;2307;48.448;9.216;2022-09-30T07:06:22;94791.25;;;8.65;100.00
4590;BME280;2307;48.448;9.216;2022-09-30T07:08:50;94793.09;;;8.65;100.00
4590;BME280;2307;48.448;9.216;2022-09-30T07:11:17;94799.56;;;8.74;100.00
4590;BME280;2307;48.448;9.216;2022-09-30T07:13:44;94807.63;;;8.84;100.00
4590;BME280;2307;48.448;9.216;2022-09-30T07:16:11;94813.13;;;8.82;100.00
4590;BME280;2307;48.448;9.216;2022-09-30T07:18:38;94817.31;;;9.28;100.00
4590;BME280;2307;48.448;9.216;2022-09-30T07:21:06;94818.03;;;9.79;100.00
4590;BME280;2307;48.448;9.216;2022-09-30T07:23:32;94809.81;;;9.75;100.00
4590;BME280;2307;48.448;9.216;2022-09-30T07:26:01;94809.78;;;9.53;100.00
4590;BME280;2307;48.448;9.216;2022-09-30T07:28:29;94811.13;;;9.39;100.00
4590;BME280;2307;48.448;9.216;2022-09-30T07:30:58;94815.78;;;9.32;100.00
4590;BME280;2307;48.448;9.216;2022-09-30T07:33:25;94821.38;;;9.19;100.00
4590;BME280;2307;48.448;9.216;2022-09-30T07:35:53;94817.47;;;9.22;100.00
4590;BME280;2307;48.448;9.216;2022-09-30T07:38:21;94828.16;;;9.15;100.00
4590;BME280;2307;48.448;9.216;2022-09-30T07:40:52;94832.16;;;9.18;100.00
4590;BME280;2307;48.448;9.216;2022-09-30T07:43:20;94836.41;;;9.35;100.00
4590;BME280;2307;48.448;9.216;2022-09-30T07:45:47;94829.75;;;9.49;100.00
4590;BME280;2307;48.448;9.216;2022-09-30T07:48:13;94834.22;;;9.49;100.00
4590;BME280;2307;48.448;9.216;2022-09-30T07:50:54;94835.97;;;9.43;100.00
4590;BME280;2307;48.448;9.216;2022-09-30T07:53:20;94839.09;;;9.40;100.00
4590;BME280;2307;48.448;9.216;2022-09-30T07:55:47;94841.25;;;9.43;100.00
4590;BME280;2307;48.448;9.216;2022-09-30T07:58:13;94854.16;;;9.61;100.00
4590;BME280;2307;48.448;9.216;2022-09-30T08:00:41;94853.38;;;9.61;100.00
4590;BME280;2307;48.448;9.216;2022-09-30T08:03:07;94852.47;;;9.89;100.00
4590;BME280;2307;48.448;9.216;2022-09-30T08:05:37;94849.28;;;10.08;100.00
4590;BME280;2307;48.448;9.216;2022-09-30T08:08:03;94848.00;;;10.11;100.00
4590;BME280;2307;48.448;9.216;2022-09-30T08:10:32;94855.84;;;10.06;100.00
4590;BME280;2307;48.448;9.216;2022-09-30T08:12:58;94856.53;;;10.18;100.00
4590;BME280;2307;48.448;9.216;2022-09-30T08:15:24;94867.50;;;10.27;100.00
4590;BME280;2307;48.448;9.216;2022-09-30T08:17:52;94860.97;;;10.34;100.00
4590;BME280;2307;48.448;9.216;2022-09-30T08:20:19;94861.72;;;10.30;100.00
4590;BME280;2307;48.448;9.216;2022-09-30T08:22:45;94868.97;;;10.39;100.00
4590;BME280;2307;48.448;9.216;2022-09-30T08:25:11;94868.59;;;10.52;100.00
4590;BME280;2307;48.448;9.216;2022-09-30T08:27:38;94869.13;;;10.54;100.00
4590;BME280;2307;48.448;9.216;2022-09-30T08:30:04;94868.44;;;10.64;100.00
4590;BME280;2307;48.448;9.216;2022-09-30T08:32:31;94875.06;;;10.66;100.00
4590;BME280;2307;48.448;9.216;2022-09-30T08:34:59;94874.03;;;10.68;100.00
4590;BME280;2307;48.448;9.216;2022-09-30T08:37:25;94867.38;;;10.87;100.00
4590;BME280;2307;48.448;9.216;2022-09-30T08:39:51;94878.13;;;10.80;100.00
4590;BME280;2307;48.448;9.216;2022-09-30T08:42:21;94876.94;;;10.93;100.00
4590;BME280;2307;48.448;9.216;2022-09-30T08:44:52;94874.72;;;11.06;100.00
4590;BME280;2307;48.448;9.216;2022-09-30T08:47:29;94885.13;;;11.18;100.00
4590;BME280;2307;48.448;9.216;2022-09-30T08:50:02;94884.50;;;11.11;100.00
4590;BME280;2307;48.448;9.216;2022-09-30T08:52:30;94890.59;;;11.11;100.00
4590;BME280;2307;48.448;9.216;2022-09-30T08:54:58;94892.72;;;11.09;100.00
4590;BME280;2307;48.448;9.216;2022-09-30T08:57:25;94893.28;;;11.16;100.00
4590;BME280;2307;48.448;9.216;2022-09-30T08:59:54;94890.00;;;11.04;100.00
4590;BME280;2307;48.448;9.216;2022-09-30T09:02:23;94895.97;;;10.95;100.00
4590;BME280;2307;48.448;9.216;2022-09-30T09:04:51;94895.97;;;10.95;100.00
4590;BME280;2307;48.448;9.216;2022-09-30T09:07:24;94901.56;;;10.98;100.00
4590;BME280;2307;48.448;9.216;2022-09-30T09:09:58;94903.69;;;10.96;100.00
4590;BME280;2307;48.448;9.216;2022-09-30T09:12:27;94909.50;;;10.98;100.00
4590;BME280;2307;48.448;9.216;2022-09-30T09:15:04;94911.84;;;10.95;100.00
4590;BME280;2307;48.448;9.216;2022-09-30T09:17:39;94905.56;;;11.01;100.00
4590;BME280;2307;48.448;9.216;2022-09-30T09:20:12;94911.63;;;11.01;100.00
4590;BME280;2307;48.448;9.216;2022-09-30T09:22:41;94919.06;;;11.31;100.00
4590;BME280;2307;48.448;9.216;2022-09-30T09:25:09;94920.00;;;11.20;100.00
4590;BME280;2307;48.448;9.216;2022-09-30T09:27:40;94917.34;;;11.15;100.00
4590;BME280;2307;48.448;9.216;2022-09-30T09:30:09;94919.44;;;11.13;100.00
4590;BME280;2307;48.448;9.216;2022-09-30T09:32:37;94919.88;;;11.05;100.00
4590;BME280;2307;48.448;9.216;2022-09-30T09:35:08;94913.09;;;11.14;100.00
4590;BME280;2307;48.448;9.216;2022-09-30T09:37:39;94910.13;;;11.37;100.00
4590;BME280;2307;48.448;9.216;2022-09-30T09:40:28;94917.50;;;11.62;100.00
4590;BME280;2307;48.448;9.216;2022-09-30T09:43:03;94916.59;;;11.78;100.00
4590;BME280;2307;48.448;9.216;2022-09-30T09:45:34;94913.25;;;11.93;100.00
4590;BME280;2307;48.448;9.216;2022-09-30T09:48:06;94912.28;;;12.04;100.00
4590;BME280;2307;48.448;9.216;2022-09-30T09:50:34;94912.50;;;12.02;100.00
4590;BME280;2307;48.448;9.216;2022-09-30T09:53:12;94919.41;;;12.03;100.00
4590;BME280;2307;48.448;9.216;2022-09-30T09:55:43;94915.16;;;12.02;100.00
4590;BME280;2307;48.448;9.216;2022-09-30T09:58:12;94919.19;;;12.10;100.00
4590;BME280;2307;48.448;9.216;2022-09-30T10:00:38;94920.22;;;12.04;100.00
4590;BME280;2307;48.448;9.216;2022-09-30T10:03:37;94919.91;;;12.00;100.00
4590;BME280;2307;48.448;9.216;2022-09-30T10:06:04;94922.84;;;12.04;100.00
4590;BME280;2307;48.448;9.216;2022-09-30T10:08:32;94928.97;;;12.09;100.00
4590;BME280;2307;48.448;9.216;2022-09-30T10:11:01;94915.53;;;12.21;100.00
4590;BME280;2307;48.448;9.216;2022-09-30T10:13:28;94916.69;;;12.35;100.00
4590;BME280;2307;48.448;9.216;2022-09-30T10:15:56;94926.25;;;12.41;100.00
4590;BME280;2307;48.448;9.216;2022-09-30T10:18:24;94921.75;;;12.42;100.00
4590;BME280;2307;48.448;9.216;2022-09-30T10:20:53;94930.56;;;12.57;100.00
4590;BME280;2307;48.448;9.216;2022-09-30T10:23:21;94920.25;;;12.61;100.00
4590;BME280;2307;48.448;9.216;2022-09-30T10:25:53;94918.97;;;12.73;100.00
4590;BME280;2307;48.448;9.216;2022-09-30T10:28:22;94932.47;;;12.67;100.00
4590;BME280;2307;48.448;9.216;2022-09-30T10:30:50;94941.03;;;12.84;100.00
4590;BME280;2307;48.448;9.216;2022-09-30T10:33:29;94932.03;;;12.95;100.00
4590;BME280;2307;48.448;9.216;2022-09-30T10:36:00;94932.31;;;12.99;100.00
4590;BME280;2307;48.448;9.216;2022-09-30T10:38:27;94931.50;;;12.98;100.00
4590;BME280;2307;48.448;9.216;2022-09-30T10:40:56;94938.66;;;12.98;100.00
4590;BME280;2307;48.448;9.216;2022-09-30T10:43:25;94946.38;;;13.04;100.00
4590;BME280;2307;48.448;9.216;2022-09-30T10:45:53;94938.72;;;13.13;100.00
4590;BME280;2307;48.448;9.216;2022-09-30T10:48:20;94937.44;;;13.20;100.00
4590;BME280;2307;48.448;9.216;2022-09-30T10:50:49;94938.50;;;13.19;100.00
4590;BME280;2307;48.448;9.216;2022-09-30T10:53:17;94944.59;;;13.20;100.00
4590;BME280;2307;48.448;9.216;2022-09-30T10:55:46;94941.94;;;13.20;100.00
4590;BME280;2307;48.448;9.216;2022-09-30T10:58:20;94947.28;;;13.30;100.00
4590;BME280;2307;48.448;9.216;2022-09-30T11:00:49;94939.56;;;13.18;100.00
4590;BME280;2307;48.448;9.216;2022-09-30T11:03:19;94950.97;;;13.19;100.00
4590;BME280;2307;48.448;9.216;2022-09-30T11:05:48;94944.59;;;13.20;100.00
4590;BME280;2307;48.448;9.216;2022-09-30T11:08:16;94949.34;;;13.13;100.00
4590;BME280;2307;48.448;9.216;2022-09-30T11:10:44;94953.53;;;12.94;100.00
4590;BME280;2307;48.448;9.216;2022-09-30T11:13:12;94965.16;;;12.93;100.00
4590;BME280;2307;48.448;9.216;2022-09-30T11:15:44;94965.41;;;12.81;100.00
4590;BME280;2307;48.448;9.216;2022-09-30T11:18:20;94959.34;;;12.96;100.00
4590;BME280;2307;48.448;9.216;2022-09-30T11:20:49;94957.84;;;13.15;100.00
4590;BME280;2307;48.448;9.216;2022-09-30T11:23:17;94954.16;;;13.26;100.00
4590;BME280;2307;48.448;9.216;2022-09-30T11:25:46;94954.91;;;13.16;100.00
4590;BME280;2307;48.448;9.216;2022-09-30T11:28:27;94961.63;;;13.34;100.00
4590;BME280;2307;48.448;9.216;2022-09-30T11:30:59;94952.84;;;13.39;100.00
4590;BME280;2307;48.448;9.216;2022-09-30T11:33:33;94952.38;;;13.72;100.00
4590;BME280;2307;48.448;9.216;2022-09-30T11:36:03;94963.25;;;14.06;100.00
4590;BME280;2307;48.448;9.216;2022-09-30T11:38:40;94958.72;;;14.31;100.00
4590;BME280;2307;48.448;9.216;2022-09-30T11:41:13;94949.44;;;13.99;100.00
4590;BME280;2307;48.448;9.216;2022-09-30T11:43:45;94955.56;;;14.19;100.00
4590;BME280;2307;48.448;9.216;2022-09-30T11:46:26;94957.16;;;14.20;100.00
4590;BME280;2307;48.448;9.216;2022-09-30T11:49:10;94961.13;;;14.48;100.00
4590;BME280;2307;48.448;9.216;2022-09-30T11:51:43;94954.97;;;14.68;100.00
4590;BME280;2307;48.448;9.216;2022-09-30T11:54:24;94960.97;;;14.88;100.00
4590;BME280;2307;48.448;9.216;2022-09-30T11:56:54;94949.44;;;15.18;95.34
4590;BME280;2307;48.448;9.216;2022-09-30T11:59:25;94957.72;;;15.12;92.66
4590;BME280;2307;48.448;9.216;2022-09-30T12:01:53;94951.66;;;14.96;90.22
4590;BME280;2307;48.448;9.216;2022-09-30T12:04:24;94948.34;;;15.19;100.00
4590;BME280;2307;48.448;9.216;2022-09-30T12:06:56;94956.78;;;15.36;94.18
4590;BME280;2307;48.448;9.216;2022-09-30T12:09:24;94952.47;;;15.46;98.12
4590;BME280;2307;48.448;9.216;2022-09-30T12:12:05;94953.81;;;15.43;92.81
4590;BME280;2307;48.448;9.216;2022-09-30T12:14:35;94948.03;;;15.26;97.32
4590;BME280;2307;48.448;9.216;2022-09-30T12:17:05;94960.06;;;15.18;95.70
4590;BME280;2307;48.448;9.216;2022-09-30T12:19:39;94950.81;;;15.06;95.45
4590;BME280;2307;48.448;9.216;2022-09-30T12:22:09;94951.28;;;15.18;99.45
4590;BME280;2307;48.448;9.216;2022-09-30T12:24:37;94951.75;;;15.30;100.00
4590;BME280;2307;48.448;9.216;2022-09-30T12:27:06;94948.28;;;15.34;100.00
4590;BME280;2307;48.448;9.216;2022-09-30T12:29:39;94953.00;;;15.48;100.00
4590;BME280;2307;48.448;9.216;2022-09-30T12:35:17;94961.22;;;15.51;92.72
4590;BME280;2307;48.448;9.216;2022-09-30T12:37:53;94957.53;;;15.47;89.37
4590;BME280;2307;48.448;9.216;2022-09-30T12:40:29;94961.53;;;15.50;82.17
4590;BME280;2307;48.448;9.216;2022-09-30T12:48:34;94959.50;;;16.38;72.55
4590;BME280;2307;48.448;9.216;2022-09-30T12:51:03;94957.31;;;16.74;62.42
4590;BME280;2307;48.448;9.216;2022-09-30T12:53:30;94961.19;;;16.58;63.12
4590;BME280;2307;48.448;9.216;2022-09-30T12:56:01;94955.69;;;16.73;63.35
4590;BME280;2307;48.448;9.216;2022-09-30T12:58:30;94945.00;;;16.96;66.77
4590;BME280;2307;48.448;9.216;2022-09-30T13:01:00;94952.88;;;17.30;60.25
4590;BME280;2307;48.448;9.216;2022-09-30T13:03:31;94951.84;;;17.69;64.59
4590;BME280;2307;48.448;9.216;2022-09-30T13:06:10;94950.81;;;17.83;61.63
4590;BME280;2307;48.448;9.216;2022-09-30T13:08:40;94954.09;;;18.13;60.92
4590;BME280;2307;48.448;9.216;2022-09-30T13:11:20;94961.19;;;18.36;61.22
4590;BME280;2307;48.448;9.216;2022-09-30T13:13:56;94957.28;;;18.74;62.06
4590;BME280;2307;48.448;9.216;2022-09-30T13:19:17;94964.34;;;19.52;49.85
4590;BME280;2307;48.448;9.216;2022-09-30T13:21:46;94962.41;;;19.66;48.57
4590;BME280;2307;48.448;9.216;2022-09-30T13:24:12;94964.34;;;19.25;48.97
4590;BME280;2307;48.448;9.216;2022-09-30T13:26:44;94963.75;;;19.41;50.53
4590;BME280;2307;48.448;9.216;2022-09-30T13:32:28;94964.97;;;19.22;49.76
4590;BME280;2307;48.448;9.216;2022-09-30T13:34:55;94967.53;;;18.99;49.52
4590;BME280;2307;48.448;9.216;2022-09-30T13:37:37;94967.03;;;19.11;50.32
4590;BME280;2307;48.448;9.216;2022-09-30T13:40:04;94963.94;;;19.45;49.74
4590;BME280;2307;48.448;9.216;2022-09-30T13:42:39;94965.88;;;19.67;48.00
4590;BME280;2307;48.448;9.216;2022-09-30T13:45:10;94972.06;;;20.11;47.86
4590;BME280;2307;48.448;9.216;2022-09-30T13:47:42;94966.59;;;19.94;45.78
4590;BME280;2307;48.448;9.216;2022-09-30T13:50:11;94964.44;;;19.06;46.74